sensor_id;sensor_type;location;lat;lon;timestamp;P1;durP1;ratioP1;P2;durP2;ratioP2
35797;SDS011;21918;49.940;7.774;2022-08-03T00:01:43;4.88;;;2.58;;
35797;SDS011;21918;49.940;7.774;2022-08-03T00:04:10;2.63;;;2.42;;
35797;SDS011;21918;49.940;7.774;2022-08-03T00:06:37;2.63;;;2.42;;
35797;SDS011;21918;49.940;7.774;2022-08-03T00:09:04;2.83;;;2.58;;
35797;SDS011;21918;49.940;7.774;2022-08-03T00:11:31;3.03;;;2.83;;
35797;SDS011;21918;49.940;7.774;2022-08-03T00:13:59;2.90;;;2.70;;
35797;SDS011;21918;49.940;7.774;2022-08-03T00:16:26;2.75;;;2.55;;
35797;SDS011;21918;49.940;7.774;2022-08-03T00:18:53;2.67;;;2.47;;
35797;SDS011;21918;49.940;7.774;2022-08-03T00:21:19;3.13;;;2.28;;
35797;SDS011;21918;49.940;7.774;2022-08-03T00:23:46;2.65;;;2.35;;
35797;SDS011;21918;49.940;7.774;2022-08-03T00:26:13;2.78;;;2.58;;
35797;SDS011;21918;49.940;7.774;2022-08-03T00:28:40;5.18;;;2.97;;
35797;SDS011;21918;49.940;7.774;2022-08-03T00:31:08;2.90;;;2.70;;
35797;SDS011;21918;49.940;7.774;2022-08-03T00:33:34;3.00;;;2.80;;
35797;SDS011;21918;49.940;7.774;2022-08-03T00:36:01;3.13;;;2.80;;
35797;SDS011;21918;49.940;7.774;2022-08-03T00:38:27;2.70;;;2.50;;
35797;SDS011;21918;49.940;7.774;2022-08-03T00:40:54;2.55;;;2.45;;
35797;SDS011;21918;49.940;7.774;2022-08-03T00:43:23;2.53;;;2.33;;
35797;SDS011;21918;49.940;7.774;2022-08-03T00:45:50;2.60;;;2.40;;
35797;SDS011;21918;49.940;7.774;2022-08-03T00:48:20;3.33;;;2.65;;
35797;SDS011;21918;49.940;7.774;2022-08-03T00:50:46;4.93;;;2.63;;
35797;SDS011;21918;49.940;7.774;2022-08-03T00:53:13;2.65;;;2.45;;
35797;SDS011;21918;49.940;7.774;2022-08-03T00:55:40;2.22;;;2.10;;
35797;SDS011;21918;49.940;7.774;2022-08-03T00:58:08;2.80;;;2.60;;
35797;SDS011;21918;49.940;7.774;2022-08-03T01:00:36;3.00;;;2.80;;
35797;SDS011;21918;49.940;7.774;2022-08-03T01:03:05;2.70;;;2.50;;
35797;SDS011;21918;49.940;7.774;2022-08-03T01:08:19;3.28;;;2.45;;
35797;SDS011;21918;49.940;7.774;2022-08-03T01:10:52;2.70;;;2.50;;
35797;SDS011;21918;49.940;7.774;2022-08-03T01:13:27;2.60;;;2.10;;
35797;SDS011;21918;49.940;7.774;2022-08-03T01:15:59;2.65;;;2.45;;
35797;SDS011;21918;49.940;7.774;2022-08-03T01:18:31;3.78;;;2.30;;
35797;SDS011;21918;49.940;7.774;2022-08-03T01:21:06;2.97;;;2.78;;
35797;SDS011;21918;49.940;7.774;2022-08-03T01:23:48;2.75;;;2.50;;
35797;SDS011;21918;49.940;7.774;2022-08-03T01:32:20;2.75;;;2.55;;
35797;SDS011;21918;49.940;7.774;2022-08-03T01:34:51;3.05;;;2.75;;
35797;SDS011;21918;49.940;7.774;2022-08-03T01:37:25;2.47;;;2.28;;
35797;SDS011;21918;49.940;7.774;2022-08-03T01:39:57;2.28;;;2.17;;
35797;SDS011;21918;49.940;7.774;2022-08-03T01:42:27;2.42;;;2.30;;
35797;SDS011;21918;49.940;7.774;2022-08-03T01:44:57;2.35;;;2.25;;
35797;SDS011;21918;49.940;7.774;2022-08-03T01:47:26;2.55;;;2.40;;
35797;SDS011;21918;49.940;7.774;2022-08-03T01:49:54;2.33;;;2.20;;
35797;SDS011;21918;49.940;7.774;2022-08-03T01:52:22;2.63;;;2.42;;
35797;SDS011;21918;49.940;7.774;2022-08-03T01:54:51;2.72;;;2.53;;
35797;SDS011;21918;49.940;7.774;2022-08-03T01:57:19;2.70;;;2.50;;
35797;SDS011;21918;49.940;7.774;2022-08-03T01:59:48;2.10;;;1.92;;
35797;SDS011;21918;49.940;7.774;2022-08-03T02:02:17;2.60;;;2.47;;
35797;SDS011;21918;49.940;7.774;2022-08-03T02:04:46;2.72;;;2.53;;
35797;SDS011;21918;49.940;7.774;2022-08-03T02:07:14;2.72;;;2.53;;
35797;SDS011;21918;49.940;7.774;2022-08-03T02:09:43;3.22;;;2.72;;
35797;SDS011;21918;49.940;7.774;2022-08-03T02:12:11;2.45;;;2.25;;
35797;SDS011;21918;49.940;7.774;2022-08-03T02:14:39;2.83;;;2.40;;
35797;SDS011;21918;49.940;7.774;2022-08-03T02:17:08;2.95;;;2.42;;
35797;SDS011;21918;49.940;7.774;2022-08-03T02:19:37;3.63;;;2.53;;
35797;SDS011;21918;49.940;7.774;2022-08-03T02:22:06;2.50;;;2.30;;
35797;SDS011;21918;49.940;7.774;2022-08-03T02:24:35;2.58;;;2.38;;
35797;SDS011;21918;49.940;7.774;2022-08-03T02:27:02;3.50;;;2.55;;
35797;SDS011;21918;49.940;7.774;2022-08-03T02:29:33;2.38;;;2.17;;
35797;SDS011;21918;49.940;7.774;2022-08-03T02:32:04;2.40;;;2.30;;
35797;SDS011;21918;49.940;7.774;2022-08-03T02:34:32;2.30;;;2.17;;
35797;SDS011;21918;49.940;7.774;2022-08-03T02:37:02;2.72;;;2.53;;
35797;SDS011;21918;49.940;7.774;2022-08-03T02:39:32;2.72;;;2.53;;
35797;SDS011;21918;49.940;7.774;2022-08-03T02:42:01;2.55;;;2.40;;
35797;SDS011;21918;49.940;7.774;2022-08-03T02:44:30;3.28;;;2.45;;
35797;SDS011;21918;49.940;7.774;2022-08-03T02:46:59;2.80;;;2.60;;
35797;SDS011;21918;49.940;7.774;2022-08-03T02:49:30;2.63;;;2.42;;
35797;SDS011;21918;49.940;7.774;2022-08-03T02:51:58;2.97;;;2.55;;
35797;SDS011;21918;49.940;7.774;2022-08-03T02:54:27;2.83;;;2.63;;
35797;SDS011;21918;49.940;7.774;2022-08-03T02:56:55;2.55;;;2.35;;
35797;SDS011;21918;49.940;7.774;2022-08-03T02:59:23;2.75;;;2.55;;
35797;SDS011;21918;49.940;7.774;2022-08-03T03:01:51;2.60;;;2.40;;
35797;SDS011;21918;49.940;7.774;2022-08-03T03:04:20;2.25;;;2.05;;
35797;SDS011;21918;49.940;7.774;2022-08-03T03:06:48;2.65;;;2.45;;
35797;SDS011;21918;49.940;7.774;2022-08-03T03:09:16;3.10;;;2.85;;
35797;SDS011;21918;49.940;7.774;2022-08-03T03:11:45;2.92;;;2.55;;
35797;SDS011;21918;49.940;7.774;2022-08-03T03:14:14;2.97;;;2.70;;
35797;SDS011;21918;49.940;7.774;2022-08-03T03:16:41;2.85;;;2.65;;
35797;SDS011;21918;49.940;7.774;2022-08-03T03:19:10;2.53;;;2.33;;
35797;SDS011;21918;49.940;7.774;2022-08-03T03:21:38;2.63;;;2.42;;
35797;SDS011;21918;49.940;7.774;2022-08-03T03:24:05;3.30;;;3.00;;
35797;SDS011;21918;49.940;7.774;2022-08-03T03:26:34;2.60;;;2.38;;
35797;SDS011;21918;49.940;7.774;2022-08-03T03:29:03;2.70;;;2.50;;
35797;SDS011;21918;49.940;7.774;2022-08-03T03:31:32;2.33;;;2.08;;
35797;SDS011;21918;49.940;7.774;2022-08-03T03:34:00;2.45;;;2.25;;
35797;SDS011;21918;49.940;7.774;2022-08-03T03:36:27;2.63;;;2.42;;
35797;SDS011;21918;49.940;7.774;2022-08-03T03:38:53;2.58;;;2.38;;
35797;SDS011;21918;49.940;7.774;2022-08-03T03:41:20;2.65;;;2.45;;
35797;SDS011;21918;49.940;7.774;2022-08-03T03:43:48;2.13;;;2.03;;
35797;SDS011;21918;49.940;7.774;2022-08-03T03:46:17;9.30;;;2.78;;
35797;SDS011;21918;49.940;7.774;2022-08-03T03:48:44;2.40;;;2.30;;
35797;SDS011;21918;49.940;7.774;2022-08-03T03:51:10;4.07;;;2.50;;
35797;SDS011;21918;49.940;7.774;2022-08-03T03:53:38;2.72;;;2.50;;
35797;SDS011;21918;49.940;7.774;2022-08-03T03:56:04;2.30;;;2.20;;
35797;SDS011;21918;49.940;7.774;2022-08-03T03:58:31;2.60;;;2.40;;
35797;SDS011;21918;49.940;7.774;2022-08-03T04:00:58;2.72;;;2.53;;
35797;SDS011;21918;49.940;7.774;2022-08-03T04:03:26;2.67;;;2.47;;
35797;SDS011;21918;49.940;7.774;2022-08-03T04:05:53;2.50;;;2.33;;
35797;SDS011;21918;49.940;7.774;2022-08-03T04:08:37;2.72;;;2.53;;
35797;SDS011;21918;49.940;7.774;2022-08-03T04:11:23;2.40;;;2.30;;
35797;SDS011;21918;49.940;7.774;2022-08-03T04:13:54;2.83;;;2.63;;
35797;SDS011;21918;49.940;7.774;2022-08-03T04:16:25;2.50;;;2.30;;
35797;SDS011;21918;49.940;7.774;2022-08-03T04:18:56;2.70;;;2.50;;
35797;SDS011;21918;49.940;7.774;2022-08-03T04:21:26;2.00;;;1.90;;
35797;SDS011;21918;49.940;7.774;2022-08-03T04:23:57;4.13;;;2.67;;
35797;SDS011;21918;49.940;7.774;2022-08-03T04:26:27;2.85;;;2.65;;
35797;SDS011;21918;49.940;7.774;2022-08-03T04:29:00;2.78;;;2.58;;
35797;SDS011;21918;49.940;7.774;2022-08-03T04:31:32;2.78;;;2.60;;
35797;SDS011;21918;49.940;7.774;2022-08-03T04:34:01;2.55;;;2.35;;
35797;SDS011;21918;49.940;7.774;2022-08-03T04:36:30;2.22;;;2.13;;
35797;SDS011;21918;49.940;7.774;2022-08-03T04:39:03;2.17;;;2.08;;
35797;SDS011;21918;49.940;7.774;2022-08-03T04:41:33;2.03;;;1.92;;
35797;SDS011;21918;49.940;7.774;2022-08-03T04:44:01;2.45;;;2.25;;
35797;SDS011;21918;49.940;7.774;2022-08-03T04:46:30;2.83;;;2.63;;
35797;SDS011;21918;49.940;7.774;2022-08-03T04:49:02;2.30;;;2.10;;
35797;SDS011;21918;49.940;7.774;2022-08-03T04:51:30;3.05;;;2.85;;
35797;SDS011;21918;49.940;7.774;2022-08-03T04:53:58;2.53;;;2.33;;
35797;SDS011;21918;49.940;7.774;2022-08-03T04:56:26;3.50;;;3.00;;
35797;SDS011;21918;49.940;7.774;2022-08-03T04:58:52;7.07;;;3.03;;
35797;SDS011;21918;49.940;7.774;2022-08-03T05:01:19;2.95;;;2.42;;
35797;SDS011;21918;49.940;7.774;2022-08-03T05:03:46;5.50;;;2.25;;
35797;SDS011;21918;49.940;7.774;2022-08-03T05:06:14;8.35;;;3.40;;
35797;SDS011;21918;49.940;7.774;2022-08-03T05:08:41;4.53;;;2.60;;
35797;SDS011;21918;49.940;7.774;2022-08-03T05:11:08;6.18;;;3.05;;
35797;SDS011;21918;49.940;7.774;2022-08-03T05:13:34;6.50;;;2.90;;
35797;SDS011;21918;49.940;7.774;2022-08-03T05:16:01;2.88;;;2.38;;
35797;SDS011;21918;49.940;7.774;2022-08-03T05:18:32;7.35;;;3.10;;
35797;SDS011;21918;49.940;7.774;2022-08-03T05:20:59;5.60;;;3.58;;
35797;SDS011;21918;49.940;7.774;2022-08-03T05:23:28;4.75;;;3.35;;
35797;SDS011;21918;49.940;7.774;2022-08-03T05:25:54;5.85;;;3.22;;
35797;SDS011;21918;49.940;7.774;2022-08-03T05:28:21;5.38;;;3.58;;
35797;SDS011;21918;49.940;7.774;2022-08-03T05:30:49;4.20;;;3.13;;
35797;SDS011;21918;49.940;7.774;2022-08-03T05:33:17;4.13;;;3.25;;
35797;SDS011;21918;49.940;7.774;2022-08-03T05:35:45;7.05;;;3.72;;
35797;SDS011;21918;49.940;7.774;2022-08-03T05:38:11;3.97;;;3.63;;
35797;SDS011;21918;49.940;7.774;2022-08-03T05:40:39;6.05;;;3.55;;
35797;SDS011;21918;49.940;7.774;2022-08-03T05:43:06;13.10;;;4.35;;
35797;SDS011;21918;49.940;7.774;2022-08-03T05:45:33;8.80;;;3.70;;
35797;SDS011;21918;49.940;7.774;2022-08-03T05:47:59;5.30;;;3.63;;
35797;SDS011;21918;49.940;7.774;2022-08-03T05:50:26;3.55;;;3.25;;
35797;SDS011;21918;49.940;7.774;2022-08-03T05:52:54;3.92;;;3.10;;
35797;SDS011;21918;49.940;7.774;2022-08-03T05:55:22;2.70;;;2.50;;
35797;SDS011;21918;49.940;7.774;2022-08-03T05:57:50;2.28;;;2.13;;
35797;SDS011;21918;49.940;7.774;2022-08-03T06:00:17;2.42;;;2.25;;
35797;SDS011;21918;49.940;7.774;2022-08-03T06:02:43;2.42;;;2.22;;
35797;SDS011;21918;49.940;7.774;2022-08-03T06:05:10;2.85;;;2.50;;
35797;SDS011;21918;49.940;7.774;2022-08-03T06:07:37;2.47;;;2.28;;
35797;SDS011;21918;49.940;7.774;2022-08-03T06:10:04;3.55;;;2.63;;
35797;SDS011;21918;49.940;7.774;2022-08-03T06:12:31;6.20;;;3.22;;
35797;SDS011;21918;49.940;7.774;2022-08-03T06:15:02;2.70;;;2.50;;
35797;SDS011;21918;49.940;7.774;2022-08-03T06:17:29;3.08;;;2.45;;
35797;SDS011;21918;49.940;7.774;2022-08-03T06:19:56;4.97;;;3.00;;
35797;SDS011;21918;49.940;7.774;2022-08-03T06:22:23;6.20;;;3.13;;
35797;SDS011;21918;49.940;7.774;2022-08-03T06:24:52;3.63;;;3.33;;
35797;SDS011;21918;49.940;7.774;2022-08-03T06:27:18;3.90;;;3.55;;
35797;SDS011;21918;49.940;7.774;2022-08-03T06:29:47;6.45;;;3.88;;
35797;SDS011;21918;49.940;7.774;2022-08-03T06:32:15;8.23;;;3.90;;
35797;SDS011;21918;49.940;7.774;2022-08-03T06:34:42;9.80;;;3.42;;
35797;SDS011;21918;49.940;7.774;2022-08-03T06:37:09;6.00;;;3.55;;
35797;SDS011;21918;49.940;7.774;2022-08-03T06:39:36;3.95;;;3.63;;
35797;SDS011;21918;49.940;7.774;2022-08-03T06:42:03;7.07;;;4.45;;
35797;SDS011;21918;49.940;7.774;2022-08-03T06:44:30;4.78;;;3.08;;
35797;SDS011;21918;49.940;7.774;2022-08-03T06:46:57;3.42;;;3.15;;
35797;SDS011;21918;49.940;7.774;2022-08-03T06:49:27;5.00;;;2.75;;
35797;SDS011;21918;49.940;7.774;2022-08-03T06:52:05;6.28;;;3.22;;
35797;SDS011;21918;49.940;7.774;2022-08-03T06:54:35;2.78;;;2.15;;
35797;SDS011;21918;49.940;7.774;2022-08-03T06:57:04;6.50;;;2.72;;
35797;SDS011;21918;49.940;7.774;2022-08-03T06:59:45;3.45;;;3.20;;
35797;SDS011;21918;49.940;7.774;2022-08-03T07:02:15;3.30;;;2.80;;
35797;SDS011;21918;49.940;7.774;2022-08-03T07:04:45;3.42;;;2.80;;
35797;SDS011;21918;49.940;7.774;2022-08-03T07:07:17;4.35;;;2.60;;
35797;SDS011;21918;49.940;7.774;2022-08-03T07:09:46;7.60;;;3.00;;
35797;SDS011;21918;49.940;7.774;2022-08-03T07:12:33;3.05;;;2.67;;
35797;SDS011;21918;49.940;7.774;2022-08-03T07:15:24;3.00;;;2.80;;
35797;SDS011;21918;49.940;7.774;2022-08-03T07:17:55;3.65;;;2.53;;
35797;SDS011;21918;49.940;7.774;2022-08-03T07:23:08;3.05;;;2.70;;
35797;SDS011;21918;49.940;7.774;2022-08-03T07:25:38;4.40;;;2.92;;
35797;SDS011;21918;49.940;7.774;2022-08-03T07:28:05;2.35;;;2.20;;
35797;SDS011;21918;49.940;7.774;2022-08-03T07:30:35;2.38;;;2.13;;
35797;SDS011;21918;49.940;7.774;2022-08-03T07:33:15;2.60;;;2.40;;
35797;SDS011;21918;49.940;7.774;2022-08-03T07:35:46;2.60;;;2.38;;
35797;SDS011;21918;49.940;7.774;2022-08-03T07:38:13;2.92;;;2.72;;
35797;SDS011;21918;49.940;7.774;2022-08-03T07:40:40;2.60;;;2.40;;
35797;SDS011;21918;49.940;7.774;2022-08-03T07:43:07;2.72;;;2.33;;
35797;SDS011;21918;49.940;7.774;2022-08-03T07:45:34;2.53;;;2.38;;
35797;SDS011;21918;49.940;7.774;2022-08-03T07:48:00;3.00;;;2.78;;
35797;SDS011;21918;49.940;7.774;2022-08-03T07:50:27;3.92;;;2.13;;
35797;SDS011;21918;49.940;7.774;2022-08-03T07:52:55;2.75;;;2.30;;
35797;SDS011;21918;49.940;7.774;2022-08-03T07:55:24;2.85;;;2.20;;
35797;SDS011;21918;49.940;7.774;2022-08-03T07:57:58;2.60;;;2.42;;
35797;SDS011;21918;49.940;7.774;2022-08-03T08:00:26;2.17;;;2.08;;
35797;SDS011;21918;49.940;7.774;2022-08-03T08:02:53;2.72;;;2.05;;
35797;SDS011;21918;49.940;7.774;2022-08-03T08:05:20;2.70;;;2.50;;
35797;SDS011;21918;49.940;7.774;2022-08-03T08:07:46;3.53;;;2.95;;
35797;SDS011;21918;49.940;7.774;2022-08-03T08:10:15;3.20;;;2.95;;
35797;SDS011;21918;49.940;7.774;2022-08-03T08:12:41;2.72;;;2.55;;
35797;SDS011;21918;49.940;7.774;2022-08-03T08:15:08;2.90;;;2.70;;
35797;SDS011;21918;49.940;7.774;2022-08-03T08:17:42;2.55;;;2.35;;
35797;SDS011;21918;49.940;7.774;2022-08-03T08:20:10;3.17;;;2.83;;
35797;SDS011;21918;49.940;7.774;2022-08-03T08:22:40;3.45;;;3.15;;
35797;SDS011;21918;49.940;7.774;2022-08-03T08:25:07;3.20;;;2.40;;
35797;SDS011;21918;49.940;7.774;2022-08-03T08:27:41;3.00;;;2.80;;
35797;SDS011;21918;49.940;7.774;2022-08-03T08:30:09;4.25;;;2.50;;
35797;SDS011;21918;49.940;7.774;2022-08-03T08:32:37;5.00;;;2.70;;
35797;SDS011;21918;49.940;7.774;2022-08-03T08:35:04;2.58;;;2.38;;
35797;SDS011;21918;49.940;7.774;2022-08-03T08:37:38;2.75;;;2.53;;
35797;SDS011;21918;49.940;7.774;2022-08-03T08:40:06;2.85;;;2.65;;
35797;SDS011;21918;49.940;7.774;2022-08-03T08:42:33;2.40;;;2.20;;
35797;SDS011;21918;49.940;7.774;2022-08-03T08:45:04;3.13;;;2.92;;
35797;SDS011;21918;49.940;7.774;2022-08-03T08:47:33;3.08;;;2.88;;
35797;SDS011;21918;49.940;7.774;2022-08-03T08:50:03;3.35;;;3.08;;
35797;SDS011;21918;49.940;7.774;2022-08-03T08:52:32;6.15;;;2.97;;
35797;SDS011;21918;49.940;7.774;2022-08-03T08:55:03;2.90;;;2.70;;
35797;SDS011;21918;49.940;7.774;2022-08-03T08:57:34;2.92;;;2.72;;
35797;SDS011;21918;49.940;7.774;2022-08-03T09:00:04;3.05;;;2.85;;
35797;SDS011;21918;49.940;7.774;2022-08-03T09:02:33;5.43;;;3.00;;
35797;SDS011;21918;49.940;7.774;2022-08-03T09:05:01;5.93;;;2.88;;
35797;SDS011;21918;49.940;7.774;2022-08-03T09:07:28;2.85;;;2.65;;
35797;SDS011;21918;49.940;7.774;2022-08-03T09:09:55;2.75;;;2.40;;
35797;SDS011;21918;49.940;7.774;2022-08-03T09:12:22;3.00;;;2.80;;
35797;SDS011;21918;49.940;7.774;2022-08-03T09:14:49;3.15;;;2.55;;
35797;SDS011;21918;49.940;7.774;2022-08-03T09:17:17;2.65;;;2.20;;
35797;SDS011;21918;49.940;7.774;2022-08-03T09:19:47;3.05;;;2.83;;
35797;SDS011;21918;49.940;7.774;2022-08-03T09:22:31;3.05;;;2.75;;
35797;SDS011;21918;49.940;7.774;2022-08-03T09:24:59;3.40;;;2.63;;
35797;SDS011;21918;49.940;7.774;2022-08-03T09:27:30;3.20;;;3.00;;
35797;SDS011;21918;49.940;7.774;2022-08-03T09:30:13;3.25;;;3.05;;
35797;SDS011;21918;49.940;7.774;2022-08-03T09:32:59;2.45;;;2.25;;
35797;SDS011;21918;49.940;7.774;2022-08-03T09:35:39;2.78;;;2.60;;
35797;SDS011;21918;49.940;7.774;2022-08-03T09:38:28;2.80;;;2.60;;
35797;SDS011;21918;49.940;7.774;2022-08-03T09:41:00;4.97;;;3.05;;
35797;SDS011;21918;49.940;7.774;2022-08-03T09:43:27;2.88;;;2.67;;
35797;SDS011;21918;49.940;7.774;2022-08-03T09:46:11;3.00;;;2.80;;
35797;SDS011;21918;49.940;7.774;2022-08-03T09:48:39;3.30;;;2.35;;
35797;SDS011;21918;49.940;7.774;2022-08-03T09:51:06;2.88;;;2.58;;
35797;SDS011;21918;49.940;7.774;2022-08-03T09:53:44;4.03;;;2.75;;
35797;SDS011;21918;49.940;7.774;2022-08-03T09:56:14;2.72;;;2.53;;
35797;SDS011;21918;49.940;7.774;2022-08-03T09:58:43;3.30;;;3.00;;
35797;SDS011;21918;49.940;7.774;2022-08-03T10:01:13;3.08;;;2.88;;
35797;SDS011;21918;49.940;7.774;2022-08-03T10:06:28;6.95;;;2.95;;
35797;SDS011;21918;49.940;7.774;2022-08-03T10:09:03;3.20;;;2.88;;
35797;SDS011;21918;49.940;7.774;2022-08-03T10:11:32;2.58;;;2.38;;
35797;SDS011;21918;49.940;7.774;2022-08-03T10:14:00;2.42;;;2.33;;
35797;SDS011;21918;49.940;7.774;2022-08-03T10:16:32;3.22;;;2.80;;
35797;SDS011;21918;49.940;7.774;2022-08-03T10:19:02;3.40;;;2.80;;
35797;SDS011;21918;49.940;7.774;2022-08-03T10:21:34;3.00;;;2.72;;
35797;SDS011;21918;49.940;7.774;2022-08-03T10:24:03;3.30;;;3.00;;
35797;SDS011;21918;49.940;7.774;2022-08-03T10:26:32;3.08;;;2.40;;
35797;SDS011;21918;49.940;7.774;2022-08-03T10:29:01;6.25;;;2.60;;
35797;SDS011;21918;49.940;7.774;2022-08-03T10:31:30;4.53;;;2.55;;
35797;SDS011;21918;49.940;7.774;2022-08-03T10:34:02;3.03;;;2.83;;
35797;SDS011;21918;49.940;7.774;2022-08-03T10:36:32;3.42;;;3.13;;
35797;SDS011;21918;49.940;7.774;2022-08-03T10:39:02;2.95;;;2.75;;
35797;SDS011;21918;49.940;7.774;2022-08-03T10:41:30;3.38;;;2.90;;
35797;SDS011;21918;49.940;7.774;2022-08-03T10:44:02;2.42;;;2.33;;
35797;SDS011;21918;49.940;7.774;2022-08-03T10:46:32;2.60;;;2.40;;
35797;SDS011;21918;49.940;7.774;2022-08-03T10:49:02;3.28;;;2.42;;
35797;SDS011;21918;49.940;7.774;2022-08-03T10:51:29;3.13;;;2.90;;
35797;SDS011;21918;49.940;7.774;2022-08-03T10:53:57;2.78;;;2.58;;
35797;SDS011;21918;49.940;7.774;2022-08-03T10:56:38;3.10;;;2.40;;
35797;SDS011;21918;49.940;7.774;2022-08-03T11:05:35;2.67;;;2.47;;
35797;SDS011;21918;49.940;7.774;2022-08-03T11:08:19;2.80;;;2.60;;
35797;SDS011;21918;49.940;7.774;2022-08-03T11:10:55;2.78;;;2.58;;
35797;SDS011;21918;49.940;7.774;2022-08-03T11:13:24;2.88;;;2.08;;
35797;SDS011;21918;49.940;7.774;2022-08-03T11:16:01;2.72;;;2.53;;
35797;SDS011;21918;49.940;7.774;2022-08-03T11:18:54;3.50;;;2.42;;
35797;SDS011;21918;49.940;7.774;2022-08-03T11:21:30;2.90;;;2.70;;
35797;SDS011;21918;49.940;7.774;2022-08-03T11:27:25;2.45;;;2.35;;
35797;SDS011;21918;49.940;7.774;2022-08-03T11:29:57;6.25;;;2.42;;
35797;SDS011;21918;49.940;7.774;2022-08-03T11:35:25;2.92;;;2.30;;
35797;SDS011;21918;49.940;7.774;2022-08-03T11:38:02;2.78;;;2.60;;
35797;SDS011;21918;49.940;7.774;2022-08-03T11:40:34;2.78;;;2.40;;
35797;SDS011;21918;49.940;7.774;2022-08-03T11:43:03;2.85;;;2.65;;
35797;SDS011;21918;49.940;7.774;2022-08-03T11:45:31;2.53;;;2.33;;
35797;SDS011;21918;49.940;7.774;2022-08-03T11:47:59;2.47;;;2.33;;
35797;SDS011;21918;49.940;7.774;2022-08-03T11:50:38;2.72;;;2.53;;
35797;SDS011;21918;49.940;7.774;2022-08-03T11:53:11;2.63;;;2.42;;
35797;SDS011;21918;49.940;7.774;2022-08-03T11:55:40;2.88;;;2.63;;
35797;SDS011;21918;49.940;7.774;2022-08-03T11:58:14;2.83;;;2.63;;
35797;SDS011;21918;49.940;7.774;2022-08-03T12:00:44;2.45;;;2.30;;
35797;SDS011;21918;49.940;7.774;2022-08-03T12:03:11;2.55;;;2.35;;
35797;SDS011;21918;49.940;7.774;2022-08-03T12:05:41;2.28;;;2.00;;
35797;SDS011;21918;49.940;7.774;2022-08-03T12:08:12;2.58;;;2.38;;
35797;SDS011;21918;49.940;7.774;2022-08-03T12:10:44;5.50;;;2.20;;
35797;SDS011;21918;49.940;7.774;2022-08-03T12:13:13;2.33;;;2.22;;
35797;SDS011;21918;49.940;7.774;2022-08-03T12:15:42;2.33;;;2.13;;
35797;SDS011;21918;49.940;7.774;2022-08-03T12:18:16;2.70;;;2.50;;
35797;SDS011;21918;49.940;7.774;2022-08-03T12:20:44;3.78;;;2.72;;
35797;SDS011;21918;49.940;7.774;2022-08-03T12:23:13;2.92;;;2.40;;
35797;SDS011;21918;49.940;7.774;2022-08-03T12:25:41;2.22;;;2.05;;
35797;SDS011;21918;49.940;7.774;2022-08-03T12:28:14;4.03;;;2.58;;
35797;SDS011;21918;49.940;7.774;2022-08-03T12:30:43;2.35;;;2.25;;
35797;SDS011;21918;49.940;7.774;2022-08-03T12:33:12;2.58;;;2.38;;
35797;SDS011;21918;49.940;7.774;2022-08-03T12:35:40;3.15;;;2.53;;
35797;SDS011;21918;49.940;7.774;2022-08-03T12:38:06;2.63;;;2.45;;
35797;SDS011;21918;49.940;7.774;2022-08-03T12:40:35;2.33;;;2.20;;
35797;SDS011;21918;49.940;7.774;2022-08-03T12:43:09;2.22;;;2.13;;
35797;SDS011;21918;49.940;7.774;2022-08-03T12:45:37;2.70;;;2.50;;
35797;SDS011;21918;49.940;7.774;2022-08-03T12:48:07;2.67;;;2.47;;
35797;SDS011;21918;49.940;7.774;2022-08-03T12:50:35;2.45;;;2.25;;
35797;SDS011;21918;49.940;7.774;2022-08-03T12:53:04;2.75;;;2.55;;
35797;SDS011;21918;49.940;7.774;2022-08-03T12:55:32;2.50;;;2.30;;
35797;SDS011;21918;49.940;7.774;2022-08-03T12:58:01;2.50;;;2.40;;
35797;SDS011;21918;49.940;7.774;2022-08-03T13:00:29;2.05;;;1.92;;
35797;SDS011;21918;49.940;7.774;2022-08-03T13:02:59;2.50;;;2.30;;
35797;SDS011;21918;49.940;7.774;2022-08-03T13:05:28;2.90;;;2.70;;
35797;SDS011;21918;49.940;7.774;2022-08-03T13:07:55;2.88;;;2.38;;
35797;SDS011;21918;49.940;7.774;2022-08-03T13:10:26;2.65;;;2.47;;
35797;SDS011;21918;49.940;7.774;2022-08-03T13:12:53;2.92;;;2.72;;
35797;SDS011;21918;49.940;7.774;2022-08-03T13:15:24;5.25;;;3.05;;
35797;SDS011;21918;49.940;7.774;2022-08-03T13:17:52;3.85;;;2.88;;
35797;SDS011;21918;49.940;7.774;2022-08-03T13:20:19;2.33;;;2.22;;
35797;SDS011;21918;49.940;7.774;2022-08-03T13:22:46;20.13;;;2.92;;
35797;SDS011;21918;49.940;7.774;2022-08-03T13:25:13;10.88;;;3.80;;
35797;SDS011;21918;49.940;7.774;2022-08-03T13:27:40;3.75;;;2.60;;
35797;SDS011;21918;49.940;7.774;2022-08-03T13:30:08;4.10;;;3.13;;
35797;SDS011;21918;49.940;7.774;2022-08-03T13:32:36;5.05;;;2.92;;
35797;SDS011;21918;49.940;7.774;2022-08-03T13:35:04;2.72;;;2.53;;
35797;SDS011;21918;49.940;7.774;2022-08-03T13:37:31;8.00;;;3.35;;
35797;SDS011;21918;49.940;7.774;2022-08-03T13:39:59;2.78;;;2.30;;
35797;SDS011;21918;49.940;7.774;2022-08-03T13:42:28;3.47;;;2.50;;
35797;SDS011;21918;49.940;7.774;2022-08-03T13:44:55;6.63;;;3.53;;
35797;SDS011;21918;49.940;7.774;2022-08-03T13:47:22;2.92;;;2.47;;
35797;SDS011;21918;49.940;7.774;2022-08-03T13:49:50;3.97;;;2.95;;
35797;SDS011;21918;49.940;7.774;2022-08-03T13:52:17;13.55;;;3.83;;
35797;SDS011;21918;49.940;7.774;2022-08-03T13:54:44;3.97;;;3.00;;
35797;SDS011;21918;49.940;7.774;2022-08-03T13:57:11;15.80;;;4.93;;
35797;SDS011;21918;49.940;7.774;2022-08-03T13:59:38;7.60;;;3.30;;
35797;SDS011;21918;49.940;7.774;2022-08-03T14:02:07;3.90;;;3.05;;
35797;SDS011;21918;49.940;7.774;2022-08-03T14:04:33;8.20;;;3.55;;
35797;SDS011;21918;49.940;7.774;2022-08-03T14:07:02;6.90;;;2.83;;
35797;SDS011;21918;49.940;7.774;2022-08-03T14:09:30;3.90;;;3.08;;
35797;SDS011;21918;49.940;7.774;2022-08-03T14:11:57;8.05;;;3.20;;
35797;SDS011;21918;49.940;7.774;2022-08-03T14:14:25;17.02;;;5.13;;
35797;SDS011;21918;49.940;7.774;2022-08-03T14:16:51;9.07;;;3.00;;
35797;SDS011;21918;49.940;7.774;2022-08-03T14:19:18;3.78;;;2.58;;
35797;SDS011;21918;49.940;7.774;2022-08-03T14:21:45;2.90;;;2.67;;
35797;SDS011;21918;49.940;7.774;2022-08-03T14:24:13;2.30;;;2.20;;
35797;SDS011;21918;49.940;7.774;2022-08-03T14:26:40;3.67;;;2.90;;
35797;SDS011;21918;49.940;7.774;2022-08-03T14:29:07;2.88;;;2.30;;
35797;SDS011;21918;49.940;7.774;2022-08-03T14:31:33;2.95;;;2.58;;
35797;SDS011;21918;49.940;7.774;2022-08-03T14:34:01;2.90;;;2.70;;
35797;SDS011;21918;49.940;7.774;2022-08-03T14:36:28;2.30;;;2.20;;
35797;SDS011;21918;49.940;7.774;2022-08-03T14:38:56;4.28;;;2.58;;
35797;SDS011;21918;49.940;7.774;2022-08-03T14:41:24;6.97;;;2.50;;
35797;SDS011;21918;49.940;7.774;2022-08-03T14:43:51;3.10;;;2.20;;
35797;SDS011;21918;49.940;7.774;2022-08-03T14:46:18;2.67;;;2.30;;
35797;SDS011;21918;49.940;7.774;2022-08-03T14:48:45;2.58;;;2.38;;
35797;SDS011;21918;49.940;7.774;2022-08-03T14:51:12;2.30;;;2.10;;
35797;SDS011;21918;49.940;7.774;2022-08-03T14:53:39;1.98;;;1.88;;
35797;SDS011;21918;49.940;7.774;2022-08-03T14:56:07;7.03;;;2.92;;
35797;SDS011;21918;49.940;7.774;2022-08-03T14:58:38;4.03;;;2.53;;
35797;SDS011;21918;49.940;7.774;2022-08-03T15:01:09;7.03;;;2.55;;
35797;SDS011;21918;49.940;7.774;2022-08-03T15:03:36;9.95;;;2.80;;
35797;SDS011;21918;49.940;7.774;2022-08-03T15:06:06;28.63;;;6.43;;
35797;SDS011;21918;49.940;7.774;2022-08-03T15:08:33;46.90;;;9.65;;
35797;SDS011;21918;49.940;7.774;2022-08-03T15:11:00;27.40;;;6.68;;
35797;SDS011;21918;49.940;7.774;2022-08-03T15:13:26;8.70;;;3.80;;
35797;SDS011;21918;49.940;7.774;2022-08-03T15:16:03;13.23;;;4.38;;
35797;SDS011;21918;49.940;7.774;2022-08-03T15:18:32;38.10;;;4.75;;
35797;SDS011;21918;49.940;7.774;2022-08-03T15:20:59;19.80;;;4.47;;
35797;SDS011;21918;49.940;7.774;2022-08-03T15:23:28;6.95;;;3.13;;
35797;SDS011;21918;49.940;7.774;2022-08-03T15:25:54;6.03;;;3.28;;
35797;SDS011;21918;49.940;7.774;2022-08-03T15:28:21;3.20;;;2.42;;